createdAt,value
2017-04-11T00:00:14.194Z,8.47
2017-04-11T00:01:14.215Z,8.48
2017-04-11T00:02:14.235Z,8.4
2017-04-11T00:03:14.254Z,8.44
2017-04-11T00:04:28.587Z,8.5
2017-04-11T00:05:14.296Z,8.48
2017-04-11T00:06:14.318Z,8.45
2017-04-11T00:07:14.338Z,8.53
2017-04-11T00:08:28.970Z,8.71
2017-04-11T00:09:14.378Z,8.68
2017-04-11T00:10:14.395Z,8.7
2017-04-11T00:11:14.415Z,8.73
2017-04-11T00:12:14.839Z,8.62
2017-04-11T00:13:14.455Z,8.62
2017-04-11T00:14:14.535Z,8.58
2017-04-11T00:15:14.498Z,8.56
2017-04-11T00:17:14.539Z,8.52
2017-04-11T00:18:14.254Z,8.56
2017-04-11T00:19:29.194Z,8.52
2017-04-11T00:20:14.599Z,8.43
2017-04-11T00:21:14.620Z,8.53
2017-04-11T00:22:14.640Z,8.55
2017-04-11T00:23:28.974Z,8.58
2017-04-11T00:24:14.683Z,8.62
2017-04-11T00:25:14.699Z,8.52
2017-04-11T00:26:14.416Z,8.52
2017-04-11T00:27:14.738Z,8.47
2017-04-11T00:28:14.761Z,8.53
2017-04-11T00:29:14.778Z,8.48
2017-04-11T00:30:14.799Z,8.4
2017-04-11T00:31:14.824Z,8.4
2017-04-11T00:32:14.839Z,8.37
2017-04-11T00:33:14.861Z,8.36
2017-04-11T00:34:29.498Z,8.25
2017-04-11T00:35:29.518Z,8.23
2017-04-11T00:36:29.537Z,8.22
2017-04-11T00:37:14.944Z,8.2
2017-04-11T00:38:14.965Z,8.12
2017-04-11T00:39:14.981Z,8.23
2017-04-11T00:40:15.023Z,8.19
2017-04-11T00:41:14.720Z,8.12
2017-04-11T00:42:14.743Z,7.97
2017-04-11T00:43:15.060Z,7.98
2017-04-11T00:44:15.081Z,7.93
2017-04-11T00:45:15.101Z,8.01
2017-04-11T00:46:15.121Z,7.97
2017-04-11T00:47:15.142Z,7.9
2017-04-11T00:48:15.163Z,7.85
2017-04-11T00:49:14.879Z,7.9
2017-04-11T00:50:15.202Z,7.8
2017-04-11T00:51:15.221Z,7.89
2017-04-11T00:52:15.244Z,7.82
2017-04-11T00:53:15.259Z,7.79
2017-04-11T00:54:15.283Z,7.67
2017-04-11T00:55:29.916Z,7.82
2017-04-11T00:56:15.320Z,7.79
2017-04-11T00:57:15.339Z,7.74
2017-04-11T00:58:15.366Z,7.69
2017-04-11T00:59:15.379Z,7.8
2017-04-11T01:00:15.402Z,7.83
2017-04-11T01:02:15.440Z,8.01
2017-04-11T01:03:15.458Z,8.05
2017-04-11T01:04:15.177Z,7.98
2017-04-11T01:05:15.499Z,8.02
2017-04-11T01:06:15.518Z,8.02
2017-04-11T01:07:30.156Z,8.08
2017-04-11T01:08:15.561Z,8.2
2017-04-11T01:09:30.193Z,8.11
2017-04-11T01:10:15.602Z,8.11
2017-04-11T01:11:30.234Z,8.07
2017-04-11T01:12:15.638Z,8.1
2017-04-11T01:13:15.655Z,8.07
2017-04-11T01:14:15.679Z,8.02
2017-04-11T01:15:15.699Z,8.04
2017-04-11T01:16:15.718Z,8.05
2017-04-11T01:17:15.433Z,8
2017-04-11T01:18:15.761Z,7.92
2017-04-11T01:19:15.778Z,7.93
2017-04-11T01:20:15.795Z,7.92
2017-04-11T01:21:15.817Z,7.89
2017-04-11T01:22:15.838Z,7.8
2017-04-11T01:23:30.474Z,7.71
2017-04-11T01:24:15.875Z,7.74
2017-04-11T01:25:15.897Z,7.58
2017-04-11T01:26:15.917Z,7.67
2017-04-11T01:27:30.552Z,7.6
2017-04-11T01:28:15.959Z,7.61
2017-04-11T01:29:15.977Z,7.58
2017-04-11T01:30:15.995Z,7.61
2017-04-11T01:31:16.024Z,7.58
2017-04-11T01:32:16.033Z,7.6
2017-04-11T01:33:16.064Z,7.49
2017-04-11T01:34:16.077Z,7.67
2017-04-11T01:35:16.093Z,7.46
2017-04-11T01:36:16.114Z,7.53
2017-04-11T01:37:16.136Z,7.55
2017-04-11T01:38:16.153Z,7.58
2017-04-11T01:39:16.178Z,7.61
2017-04-11T01:40:16.191Z,7.49
2017-04-11T01:41:16.212Z,7.5
2017-04-11T01:42:16.233Z,7.48
2017-04-11T01:43:30.868Z,7.53
2017-04-11T01:44:16.270Z,7.46
2017-04-11T01:45:16.293Z,7.35
2017-04-11T01:46:16.311Z,7.39
2017-04-11T01:47:16.028Z,7.34
2017-04-11T01:48:16.353Z,7.37
2017-04-11T01:49:16.370Z,7.32
2017-04-11T01:50:16.691Z,7.43
2017-04-11T01:51:16.411Z,7.37
2017-04-11T01:52:16.430Z,7.39
2017-04-11T01:53:16.146Z,7.24
2017-04-11T01:54:16.167Z,7.28
2017-04-11T01:55:16.494Z,7.25
2017-04-11T01:56:16.508Z,7.24
2017-04-11T01:57:16.530Z,7.16
2017-04-11T01:58:31.166Z,7.05
2017-04-11T01:59:16.572Z,7.13
2017-04-11T02:00:31.213Z,7.09
2017-04-11T02:01:16.606Z,7.16
2017-04-11T02:03:16.647Z,7.16
2017-04-11T02:04:16.363Z,7.12
2017-04-11T02:05:16.683Z,7.07
2017-04-11T02:06:16.704Z,6.95
2017-04-11T02:07:16.727Z,7.07
2017-04-11T02:08:16.753Z,7.06
2017-04-11T02:09:16.769Z,6.94
2017-04-11T02:10:16.786Z,7.09
2017-04-11T02:11:16.803Z,6.97
2017-04-11T02:12:16.821Z,6.94
2017-04-11T02:13:16.843Z,7.03
2017-04-11T02:14:16.861Z,7.13
2017-04-11T02:15:17.081Z,7.15
2017-04-11T02:16:16.899Z,7.27
2017-04-11T02:17:16.918Z,7.23
2017-04-11T02:18:17.091Z,7.27
2017-04-11T02:19:16.957Z,7.2
2017-04-11T02:20:16.979Z,7.24
2017-04-11T02:21:17.096Z,7.24
2017-04-11T02:22:17.017Z,7.25
2017-04-11T02:23:17.040Z,7.3
2017-04-11T02:24:17.057Z,7.27
2017-04-11T02:25:17.075Z,7.25
2017-04-11T02:26:17.091Z,7.25
2017-04-11T02:27:17.114Z,7.3
2017-04-11T02:28:17.134Z,7.21
2017-04-11T02:29:16.852Z,7.21
2017-04-11T02:30:31.787Z,7.13
2017-04-11T02:31:17.193Z,7.07
2017-04-11T02:32:17.212Z,7.06
2017-04-11T02:33:17.236Z,7.07
2017-04-11T02:34:17.248Z,6.97
2017-04-11T02:35:17.275Z,6.89
2017-04-11T02:36:17.289Z,6.84
2017-04-11T02:37:17.307Z,6.85
2017-04-11T02:38:17.334Z,6.92
2017-04-11T02:40:17.368Z,6.87
2017-04-11T02:41:17.385Z,6.94
2017-04-11T02:42:17.405Z,6.8
2017-04-11T02:43:32.041Z,6.85
2017-04-11T02:44:32.058Z,6.77
2017-04-11T02:45:17.463Z,6.84
2017-04-11T02:46:32.099Z,6.73
2017-04-11T02:47:17.503Z,6.76
2017-04-11T02:48:17.534Z,6.79
2017-04-11T02:49:17.542Z,6.71
2017-04-11T02:50:17.255Z,6.71
2017-04-11T02:51:17.582Z,6.77
2017-04-11T02:53:17.617Z,6.71
2017-04-11T02:54:17.637Z,6.87
2017-04-11T02:55:17.655Z,6.92
2017-04-11T02:56:17.372Z,6.97
2017-04-11T02:57:17.697Z,7.1
2017-04-11T02:58:17.713Z,7.13
2017-04-11T02:59:17.733Z,7.07
2017-04-11T03:00:17.797Z,7.07
2017-04-11T03:01:17.779Z,7.12
2017-04-11T03:02:32.409Z,7.1
2017-04-11T03:03:17.812Z,7.07
2017-04-11T03:04:17.834Z,7.17
2017-04-11T03:06:17.876Z,7.1
2017-04-11T03:07:17.887Z,7.27
2017-04-11T03:08:17.910Z,7.28
2017-04-11T03:09:17.927Z,7.25
2017-04-11T03:12:17.991Z,7.34
2017-04-11T03:13:18.004Z,7.39
2017-04-11T03:14:18.025Z,7.34
2017-04-11T03:15:18.045Z,7.45
2017-04-11T03:16:18.064Z,7.4
2017-04-11T03:17:18.083Z,7.39
2017-04-11T03:18:32.719Z,7.42
2017-04-11T03:19:18.122Z,7.43
2017-04-11T03:20:18.137Z,7.48
2017-04-11T03:21:18.159Z,7.5
2017-04-11T03:22:18.178Z,7.53
2017-04-11T03:23:18.201Z,7.5
2017-04-11T03:24:18.218Z,7.49
2017-04-11T03:25:18.237Z,7.45
2017-04-11T03:26:18.255Z,7.37
2017-04-11T03:27:18.276Z,7.35
2017-04-11T03:29:18.317Z,7.42
2017-04-11T03:30:32.950Z,7.39
2017-04-11T03:31:32.968Z,7.42
2017-04-11T03:32:18.371Z,7.37
2017-04-11T03:33:33.008Z,7.35
2017-04-11T03:34:18.410Z,7.27
2017-04-11T03:35:18.431Z,7.24
2017-04-11T03:36:18.449Z,7.25
2017-04-11T03:37:18.468Z,7.06
2017-04-11T03:38:18.489Z,6.94
2017-04-11T03:39:18.513Z,6.92
2017-04-11T03:41:18.550Z,6.97
2017-04-11T03:42:18.565Z,6.8
2017-04-11T03:43:33.204Z,6.73
2017-04-11T03:44:18.606Z,6.73
2017-04-11T03:45:18.628Z,6.73
2017-04-11T03:46:33.258Z,6.7
2017-04-11T03:47:18.358Z,6.61
2017-04-11T03:48:18.684Z,6.59
2017-04-11T03:49:18.702Z,6.64
2017-04-11T03:50:18.720Z,6.66
2017-04-11T03:51:18.740Z,6.67
2017-04-11T03:52:18.757Z,6.58
2017-04-11T03:53:18.776Z,6.62
2017-04-11T03:54:18.796Z,6.41
2017-04-11T03:55:18.815Z,6.46
2017-04-11T03:57:18.854Z,6.43
2017-04-11T03:58:18.875Z,6.43
2017-04-11T03:59:18.589Z,6.43
2017-04-11T04:00:18.912Z,6.37
2017-04-11T04:01:18.942Z,6.34
2017-04-11T04:02:18.949Z,6.44
2017-04-11T04:03:18.666Z,6.34
2017-04-11T04:04:18.683Z,6.33
2017-04-11T04:05:33.624Z,6.27
2017-04-11T04:06:18.724Z,6.33
2017-04-11T04:07:19.051Z,6.28
2017-04-11T04:08:18.913Z,6.31
2017-04-11T04:09:19.101Z,6.31
2017-04-11T04:11:18.819Z,6.31
2017-04-11T04:12:18.836Z,6.22
2017-04-11T04:13:18.857Z,6.25
2017-04-11T04:15:19.200Z,6.33
2017-04-11T04:16:19.216Z,6.28
2017-04-11T04:17:33.547Z,6.36
2017-04-11T04:18:19.254Z,6.3
2017-04-11T04:19:19.278Z,6.34
2017-04-11T04:20:19.292Z,6.31
2017-04-11T04:21:33.926Z,6.25
2017-04-11T04:22:19.330Z,6.25
2017-04-11T04:23:19.353Z,6.17
2017-04-11T04:24:19.367Z,6.19
2017-04-11T04:25:19.388Z,6.14
2017-04-11T04:26:19.407Z,6.17
2017-04-11T04:27:19.442Z,6.27
2017-04-11T04:28:19.140Z,6.19
2017-04-11T04:29:19.464Z,6.18
2017-04-11T04:30:19.480Z,6.18
2017-04-11T04:32:19.215Z,6.34
2017-04-11T04:33:34.155Z,6.25
2017-04-11T04:34:19.558Z,6.3
2017-04-11T04:35:19.576Z,6.28
2017-04-11T04:36:19.597Z,6.27
2017-04-11T04:37:34.242Z,6.28
2017-04-11T04:38:19.632Z,6.28
2017-04-11T04:39:19.665Z,6.33
2017-04-11T04:40:19.672Z,6.38
2017-04-11T04:41:19.690Z,6.37
2017-04-11T04:42:19.710Z,6.43
2017-04-11T04:43:19.728Z,6.44
2017-04-11T04:44:19.747Z,6.41
2017-04-11T04:50:19.863Z,6.58
2017-04-11T04:51:19.884Z,6.71
2017-04-11T04:52:19.904Z,6.87
2017-04-11T04:53:34.536Z,7.27
2017-04-11T04:54:19.940Z,7.37
2017-04-11T04:55:19.960Z,7.4
2017-04-11T04:56:19.978Z,7.43
2017-04-11T04:57:20.045Z,7.5
2017-04-11T04:58:20.021Z,7.43
2017-04-11T04:59:19.734Z,7.5
2017-04-11T05:00:19.755Z,7.49
2017-04-11T05:01:20.082Z,7.48
2017-04-11T05:02:19.804Z,7.39
2017-04-11T05:03:20.118Z,7.35
2017-04-11T05:04:19.835Z,7.28
2017-04-11T05:05:20.171Z,7.42
2017-04-11T05:06:34.797Z,7.43
2017-04-11T05:07:20.202Z,7.48
2017-04-11T05:08:34.840Z,7.74
2017-04-11T05:09:20.244Z,7.74
2017-04-11T05:10:20.263Z,7.68
2017-04-11T05:11:19.980Z,7.58
2017-04-11T05:13:20.325Z,7.55
2017-04-11T05:14:20.345Z,7.39
2017-04-11T05:15:20.066Z,7.39
2017-04-11T05:16:20.386Z,7.4
2017-04-11T05:17:20.405Z,7.52
2017-04-11T05:18:20.428Z,7.52
2017-04-11T05:19:20.446Z,7.55
2017-04-11T05:20:20.467Z,7.48
2017-04-11T05:21:35.104Z,7.53
2017-04-11T05:22:20.507Z,7.46
2017-04-11T05:23:20.527Z,7.58
2017-04-11T05:24:20.550Z,7.57
2017-04-11T05:25:20.569Z,7.58
2017-04-11T05:26:20.591Z,7.75
2017-04-11T05:27:20.610Z,7.61
2017-04-11T05:28:20.629Z,7.64
2017-04-11T05:29:20.651Z,7.72
2017-04-11T05:30:20.674Z,7.63
2017-04-11T05:32:20.710Z,7.79
2017-04-11T05:34:20.749Z,7.63
2017-04-11T05:35:20.769Z,7.55
2017-04-11T05:36:20.790Z,7.69
2017-04-11T05:37:20.815Z,7.63
2017-04-11T05:38:20.832Z,7.8
2017-04-11T05:39:20.850Z,7.75
2017-04-11T05:40:35.494Z,7.71
2017-04-11T05:41:20.892Z,7.67
2017-04-11T05:42:20.914Z,7.85
2017-04-11T05:43:20.935Z,7.77
2017-04-11T05:44:20.952Z,7.75
2017-04-11T05:45:20.971Z,7.79
2017-04-11T05:46:20.995Z,7.83
2017-04-11T05:47:20.707Z,7.68
2017-04-11T05:48:21.033Z,7.8
2017-04-11T05:49:35.671Z,7.85
2017-04-11T05:51:21.094Z,8.05
2017-04-11T05:52:21.109Z,8.04
2017-04-11T05:53:20.827Z,7.8
2017-04-11T05:54:21.158Z,7.87
2017-04-11T05:56:35.806Z,7.93
2017-04-11T05:57:21.212Z,7.97
2017-04-11T05:58:21.235Z,8.12
2017-04-11T05:59:21.249Z,8.12
2017-04-11T06:01:21.289Z,8.11
2017-04-11T06:02:21.310Z,8.08
2017-04-11T06:03:21.674Z,8.18
2017-04-11T06:04:21.352Z,8.22
2017-04-11T06:06:21.389Z,8.25
2017-04-11T06:07:21.409Z,8.22
2017-04-11T06:08:21.428Z,8.19
2017-04-11T06:09:21.450Z,8.33
2017-04-11T06:10:21.467Z,8.28
2017-04-11T06:11:21.487Z,8.41
2017-04-11T06:12:36.126Z,8.5
2017-04-11T06:13:21.529Z,8.5
2017-04-11T06:14:21.552Z,8.56
2017-04-11T06:15:21.568Z,8.44
2017-04-11T06:16:21.594Z,8.36
2017-04-11T06:17:21.614Z,8.38
2017-04-11T06:19:21.656Z,8.5
2017-04-11T06:20:21.669Z,8.45
2017-04-11T06:21:21.690Z,8.4
2017-04-11T06:22:21.711Z,8.41
2017-04-11T06:23:21.431Z,8.5
2017-04-11T06:24:21.756Z,8.58
2017-04-11T06:25:36.386Z,8.55
2017-04-11T06:26:21.791Z,8.66
2017-04-11T06:27:21.814Z,8.73
2017-04-11T06:28:36.146Z,8.95
2017-04-11T06:29:21.850Z,9.24
2017-04-11T06:30:21.568Z,9.58
2017-04-11T06:31:21.893Z,9.71
2017-04-11T06:32:21.610Z,9.93
2017-04-11T06:33:21.631Z,9.81
2017-04-11T06:34:21.650Z,9.6
2017-04-11T06:35:21.995Z,9.72
2017-04-11T06:36:22.001Z,9.5
2017-04-11T06:37:22.021Z,9.46
2017-04-11T06:38:22.242Z,9.42
2017-04-11T06:39:21.755Z,9.39
2017-04-11T06:40:22.082Z,9.35
2017-04-11T06:41:21.800Z,9.38
2017-04-11T06:42:22.126Z,9.42
2017-04-11T06:43:36.770Z,9.46
2017-04-11T06:44:21.865Z,9.33
2017-04-11T06:45:22.186Z,9.4
2017-04-11T06:46:22.211Z,9.4
2017-04-11T06:47:22.233Z,9.48
2017-04-11T06:49:22.272Z,9.46
2017-04-11T06:50:21.989Z,9.28
2017-04-11T06:51:22.314Z,8.86
2017-04-11T06:53:22.055Z,8.73
2017-04-11T06:54:22.379Z,8.7
2017-04-11T06:55:22.399Z,8.68
2017-04-11T06:56:37.186Z,8.84
2017-04-11T06:57:22.441Z,8.95
2017-04-11T06:58:22.462Z,9.23
2017-04-11T06:59:22.485Z,9.35
2017-04-11T07:00:22.506Z,9.5
2017-04-11T07:01:22.526Z,9.42
2017-04-11T07:02:22.246Z,9.46
2017-04-11T07:04:22.591Z,9.38
2017-04-11T07:05:22.610Z,9.42
2017-04-11T07:06:22.633Z,9.35
2017-04-11T07:07:22.650Z,9.17
2017-04-11T07:08:22.679Z,9.1
2017-04-11T07:09:22.695Z,9.21
2017-04-11T07:10:22.418Z,9.15
2017-04-11T07:11:22.736Z,9.28
2017-04-11T07:12:22.763Z,9.32
2017-04-11T07:13:22.777Z,9.36
2017-04-11T07:14:22.798Z,9.65
2017-04-11T07:15:37.437Z,9.64
2017-04-11T07:16:22.843Z,9.69
2017-04-11T07:17:22.861Z,9.58
2017-04-11T07:18:22.882Z,9.78
2017-04-11T07:19:22.908Z,9.86
2017-04-11T07:20:22.925Z,9.83
2017-04-11T07:21:22.643Z,9.99
2017-04-11T07:22:22.664Z,10.05
2017-04-11T07:23:22.685Z,10.15
2017-04-11T07:25:22.767Z,9.87
2017-04-11T07:26:23.056Z,9.81
2017-04-11T07:27:22.774Z,9.84
2017-04-11T07:28:22.793Z,9.65
2017-04-11T07:29:22.812Z,9.65
2017-04-11T07:30:23.141Z,9.58
2017-04-11T07:31:37.775Z,9.56
2017-04-11T07:32:22.877Z,9.48
2017-04-11T07:33:22.895Z,9.39
2017-04-11T07:34:23.225Z,9.53
2017-04-11T07:35:23.245Z,9.54
2017-04-11T07:36:23.262Z,9.84
2017-04-11T07:37:23.285Z,9.68
2017-04-11T07:39:23.325Z,9.46
2017-04-11T07:40:23.353Z,9.43
2017-04-11T07:41:23.381Z,9.17
2017-04-11T07:42:38.008Z,8.95
2017-04-11T07:43:38.029Z,9.02
2017-04-11T07:44:38.048Z,8.91
2017-04-11T07:45:23.452Z,8.86
2017-04-11T07:46:23.475Z,8.52
2017-04-11T07:47:37.808Z,8.65
2017-04-11T07:48:23.212Z,8.55
2017-04-11T07:49:23.235Z,8.38
2017-04-11T07:50:23.558Z,8.41
2017-04-11T07:51:23.578Z,8.4
2017-04-11T07:52:23.599Z,8.37
2017-04-11T07:53:23.619Z,8.34
2017-04-11T07:54:23.639Z,8.25
2017-04-11T07:56:23.685Z,8.07
2017-04-11T07:58:23.727Z,8.08
2017-04-11T07:59:23.741Z,8.11
2017-04-11T08:00:23.813Z,8.23
2017-04-11T08:01:23.786Z,8.1
2017-04-11T08:02:23.802Z,8.19
2017-04-11T08:03:38.445Z,8.08
2017-04-11T08:04:23.849Z,8.05
2017-04-11T08:05:23.867Z,8.1
2017-04-11T08:06:23.884Z,8.33
2017-04-11T08:07:23.909Z,8.25
2017-04-11T08:09:23.949Z,8.2
2017-04-11T08:10:23.965Z,8.11
2017-04-11T08:11:23.988Z,7.97
2017-04-11T08:12:23.704Z,7.93
2017-04-11T08:13:24.028Z,8.11
2017-04-11T08:14:24.049Z,8.19
2017-04-11T08:15:24.070Z,8.01
2017-04-11T08:16:24.092Z,8.02
2017-04-11T08:17:24.110Z,8
2017-04-11T08:18:38.747Z,8.02
2017-04-11T08:19:24.151Z,8.07
2017-04-11T08:21:24.206Z,8.29
2017-04-11T08:22:24.217Z,8.33
2017-04-11T08:23:24.232Z,8.23
2017-04-11T08:25:24.274Z,8.52
2017-04-11T08:26:24.294Z,8.55
2017-04-11T08:27:24.315Z,8.36
2017-04-11T08:29:24.053Z,8.1
2017-04-11T08:30:24.391Z,8.15
2017-04-11T08:31:39.013Z,8.15
2017-04-11T08:32:24.422Z,8.07
2017-04-11T08:33:24.453Z,8.22
2017-04-11T08:34:24.461Z,8.26
2017-04-11T08:35:24.479Z,8.04
2017-04-11T08:36:24.497Z,8.07
2017-04-11T08:37:24.521Z,8
2017-04-11T08:38:24.543Z,7.98
2017-04-11T08:40:24.581Z,8.04
2017-04-11T08:41:24.601Z,8.2
2017-04-11T08:42:24.620Z,8.2
2017-04-11T08:43:24.640Z,8.16
2017-04-11T08:44:25.014Z,8.33
2017-04-11T08:45:24.684Z,8.29
2017-04-11T08:46:24.702Z,8.41
2017-04-11T08:47:24.730Z,8.56
2017-04-11T08:48:24.748Z,8.86
2017-04-11T08:49:24.766Z,8.83
2017-04-11T08:50:39.401Z,9.15
2017-04-11T08:51:24.806Z,9.31
2017-04-11T08:52:24.829Z,9.2
2017-04-11T08:53:24.852Z,9.35
2017-04-11T08:54:24.865Z,9.57
2017-04-11T08:55:24.887Z,9.89
2017-04-11T08:56:25.161Z,10.25
2017-04-11T08:57:24.931Z,10.71
2017-04-11T08:58:24.651Z,11.25
2017-04-11T08:59:39.593Z,11.7
2017-04-11T09:00:24.995Z,11.72
2017-04-11T09:01:25.020Z,12.01
2017-04-11T09:02:25.041Z,12.04
2017-04-11T09:03:39.679Z,11.96
2017-04-11T09:04:39.702Z,11.58
2017-04-11T09:05:25.114Z,11.43
2017-04-11T09:06:39.749Z,11.54
2017-04-11T09:07:25.157Z,11.7
2017-04-11T09:08:25.179Z,11.73
2017-04-11T09:09:25.203Z,12.04
2017-04-11T09:10:25.226Z,12.05
2017-04-11T09:11:25.250Z,12.16
2017-04-11T09:12:25.275Z,12.14
2017-04-11T09:14:25.325Z,12.01
2017-04-11T09:17:25.399Z,10.86
2017-04-11T09:18:25.422Z,10.66
2017-04-11T09:19:25.446Z,10.63
2017-04-11T09:20:25.465Z,10.74
2017-04-11T09:21:25.488Z,10.99
2017-04-11T09:22:40.128Z,11.15
2017-04-11T09:23:25.535Z,11.04
2017-04-11T09:24:25.598Z,11.28
2017-04-11T09:25:25.589Z,11.37
2017-04-11T09:26:25.604Z,11.39
2017-04-11T09:27:25.646Z,11.35
2017-04-11T09:28:25.652Z,11.29
2017-04-11T09:29:25.675Z,11.51
2017-04-11T09:30:25.704Z,11.49
2017-04-11T09:31:25.727Z,11.27
2017-04-11T09:32:25.750Z,10.86
2017-04-11T09:33:25.772Z,10.84
2017-04-11T09:34:25.797Z,10.94
2017-04-11T09:35:25.515Z,11.14
2017-04-11T09:36:25.841Z,10.68
2017-04-11T09:37:25.898Z,10.44
2017-04-11T09:39:25.913Z,10.47
2017-04-11T09:40:25.632Z,10.3
2017-04-11T09:41:26.015Z,10.3
2017-04-11T09:43:26.010Z,10.25
2017-04-11T09:44:26.025Z,10.29
2017-04-11T09:45:26.047Z,10.25
2017-04-11T09:46:25.768Z,10.29
2017-04-11T09:47:26.094Z,10.18
2017-04-11T09:48:40.735Z,10.12
2017-04-11T09:49:40.757Z,9.9
2017-04-11T09:50:40.778Z,9.64
2017-04-11T09:51:26.187Z,9.23
2017-04-11T09:52:26.208Z,8.94
2017-04-11T09:53:40.846Z,8.44
2017-04-11T09:54:25.953Z,8.33
2017-04-11T09:55:25.968Z,8.04
2017-04-11T09:56:26.298Z,8.07
2017-04-11T09:57:26.332Z,7.89
2017-04-11T09:58:40.963Z,7.61
2017-04-11T09:59:26.362Z,7.64
2017-04-11T10:00:26.382Z,7.52
2017-04-11T10:01:26.403Z,7.67
2017-04-11T10:02:26.425Z,7.86
2017-04-11T10:03:26.449Z,8.04
2017-04-11T10:04:26.471Z,8.22
2017-04-11T10:05:41.107Z,8.5
2017-04-11T10:06:26.210Z,8.91
2017-04-11T10:07:26.233Z,9.4
2017-04-11T10:08:25.950Z,9.94
2017-04-11T10:09:26.579Z,10.08
2017-04-11T10:10:26.596Z,10.17
2017-04-11T10:11:26.620Z,10.26
2017-04-11T10:12:26.641Z,10.61
2017-04-11T10:13:26.663Z,11.17
2017-04-11T10:14:26.688Z,11.37
2017-04-11T10:16:26.430Z,11.03
2017-04-11T10:17:26.755Z,11.25
2017-04-11T10:19:26.194Z,10.96
2017-04-11T10:20:26.526Z,10.74
2017-04-11T10:21:41.162Z,10.45
2017-04-11T10:22:26.570Z,10.51
2017-04-11T10:23:26.897Z,10.34
2017-04-11T10:24:26.615Z,10.22
2017-04-11T10:25:41.559Z,10.22
2017-04-11T10:26:26.965Z,10.18
2017-04-11T10:27:26.986Z,10.17
2017-04-11T10:28:27.012Z,10.25
2017-04-11T10:29:27.042Z,10.04
2017-04-11T10:30:26.754Z,10.18
2017-04-11T10:31:26.776Z,10.2
2017-04-11T10:32:27.104Z,10.18
2017-04-11T10:33:27.129Z,10.48
2017-04-11T10:34:41.774Z,10.63
2017-04-11T10:35:27.171Z,10.84
2017-04-11T10:36:27.194Z,11.06
2017-04-11T10:37:27.772Z,11.27
2017-04-11T10:38:27.249Z,11.37
2017-04-11T10:39:26.962Z,11.44
2017-04-11T10:40:27.289Z,11.39
2017-04-11T10:41:41.927Z,11.25
2017-04-11T10:42:27.337Z,10.88
2017-04-11T10:43:27.358Z,10.48
2017-04-11T10:44:27.384Z,10.45
2017-04-11T10:45:27.407Z,10.41
2017-04-11T10:46:27.428Z,10.36
2017-04-11T10:47:27.453Z,10.38
2017-04-11T10:48:27.527Z,10.14
2017-04-11T10:49:27.197Z,10.15
2017-04-11T10:51:41.859Z,10.47
2017-04-11T10:52:27.567Z,10.61
2017-04-11T10:53:27.587Z,10.85
2017-04-11T10:54:42.227Z,10.74
2017-04-11T10:55:27.635Z,10.73
2017-04-11T10:56:27.659Z,10.64
2017-04-11T10:57:42.296Z,10.26
2017-04-11T10:58:27.702Z,10.17
2017-04-11T10:59:27.735Z,10.08
2017-04-11T11:00:27.445Z,10.08
2017-04-11T11:01:27.770Z,10.02
2017-04-11T11:02:27.793Z,10.02
2017-04-11T11:03:27.816Z,9.96
2017-04-11T11:05:27.860Z,10.2
2017-04-11T11:07:27.603Z,10.17
2017-04-11T11:08:27.938Z,10.32
2017-04-11T11:09:27.661Z,10.52
2017-04-11T11:10:27.673Z,10.89
2017-04-11T11:11:27.995Z,10.88
2017-04-11T11:12:27.713Z,11.09
2017-04-11T11:13:42.657Z,11.15
2017-04-11T11:14:28.062Z,11.14
2017-04-11T11:15:28.112Z,11.07
2017-04-11T11:17:28.129Z,11.15
2017-04-11T11:18:28.153Z,11.14
2017-04-11T11:19:28.177Z,10.88
2017-04-11T11:20:27.593Z,10.76
2017-04-11T11:21:28.219Z,10.78
2017-04-11T11:23:28.263Z,10.85
2017-04-11T11:24:28.286Z,11.21
2017-04-11T11:25:42.927Z,11.4
2017-04-11T11:26:28.350Z,11.55
2017-04-11T11:27:28.356Z,11.62
2017-04-11T11:29:28.403Z,11.9
2017-04-11T11:30:28.119Z,12.1
2017-04-11T11:31:28.446Z,12.31
2017-04-11T11:32:28.469Z,12.54
2017-04-11T11:33:28.189Z,12.57
2017-04-11T11:34:28.512Z,12.67
2017-04-11T11:35:28.544Z,12.65
2017-04-11T11:36:28.259Z,12.45
2017-04-11T11:39:43.248Z,12.16
2017-04-11T11:40:28.655Z,11.8
2017-04-11T11:41:28.676Z,11.78
2017-04-11T11:42:28.396Z,11.78
2017-04-11T11:43:28.729Z,11.72
2017-04-11T11:44:28.745Z,11.83
2017-04-11T11:45:28.966Z,11.82
2017-04-11T11:46:28.790Z,11.96
2017-04-11T11:47:28.813Z,11.72
2017-04-11T11:48:28.840Z,11.95
2017-04-11T11:49:28.555Z,11.91
2017-04-11T11:50:28.578Z,11.73
2017-04-11T11:51:28.604Z,11.58
2017-04-11T11:52:28.936Z,11.4
2017-04-11T11:53:28.950Z,11.46
2017-04-11T11:54:28.980Z,11.36
2017-04-11T11:55:28.996Z,10.91
2017-04-11T11:56:43.638Z,10.82
2017-04-11T11:57:29.043Z,10.7
2017-04-11T11:58:29.067Z,10.89
2017-04-11T11:59:28.783Z,10.89
2017-04-11T12:00:43.733Z,10.97
2017-04-11T12:01:28.835Z,11
2017-04-11T12:02:28.853Z,10.94
2017-04-11T12:03:29.181Z,10.61
2017-04-11T12:04:29.201Z,10.67
2017-04-11T12:05:29.232Z,10.89
2017-04-11T12:06:29.253Z,11.27
2017-04-11T12:07:29.271Z,11.52
2017-04-11T12:08:29.295Z,11.69
2017-04-11T12:09:29.317Z,11.75
2017-04-11T12:10:29.338Z,11.62
2017-04-11T12:11:43.979Z,11.46
2017-04-11T12:12:44.001Z,11.55
2017-04-11T12:13:44.022Z,11.76
2017-04-11T12:14:44.045Z,11.58
2017-04-11T12:15:29.451Z,11.52
2017-04-11T12:16:44.091Z,11.62
2017-04-11T12:17:29.195Z,11.72
2017-04-11T12:18:29.521Z,11.8
2017-04-11T12:19:29.545Z,11.88
2017-04-11T12:20:29.268Z,11.9
2017-04-11T12:21:29.285Z,11.94
2017-04-11T12:22:29.610Z,11.88
2017-04-11T12:23:29.329Z,11.78
2017-04-11T12:24:29.660Z,11.69
2017-04-11T12:25:29.378Z,11.7
2017-04-11T12:26:44.322Z,11.69
2017-04-11T12:27:44.344Z,11.6
2017-04-11T12:28:44.366Z,11.52
2017-04-11T12:29:29.770Z,11.37
2017-04-11T12:30:29.794Z,11.47
2017-04-11T12:31:29.514Z,11.37
2017-04-11T12:32:44.152Z,11.44
2017-04-11T12:33:29.555Z,11.32
2017-04-11T12:34:29.890Z,11.32
2017-04-11T12:35:29.301Z,11.46
2017-04-11T12:36:29.627Z,11.62
2017-04-11T12:37:29.953Z,11.73
2017-04-11T12:38:29.980Z,11.72
2017-04-11T12:40:30.018Z,12.01
2017-04-11T12:41:30.050Z,12.1
2017-04-11T12:42:30.065Z,12.37
2017-04-11T12:43:30.088Z,12.45
2017-04-11T12:44:30.116Z,12.77
2017-04-11T12:45:30.133Z,12.85
2017-04-11T12:46:30.156Z,13.05
2017-04-11T12:47:30.183Z,13.17
2017-04-11T12:48:44.817Z,13.46
2017-04-11T12:49:30.272Z,13.59
2017-04-11T12:50:30.251Z,13.6
2017-04-11T12:51:30.270Z,13.6
2017-04-11T12:52:30.296Z,13.62
2017-04-11T12:53:30.316Z,13.46
2017-04-11T12:54:30.338Z,13.49
2017-04-11T12:55:30.365Z,13.57
2017-04-11T12:57:30.413Z,13.67
2017-04-11T12:58:30.433Z,13.51
2017-04-11T12:59:30.457Z,13.45
2017-04-11T13:00:30.480Z,13.32
2017-04-11T13:01:30.503Z,13.3
2017-04-11T13:02:30.526Z,13.3
2017-04-11T13:03:45.165Z,13.19
2017-04-11T13:04:30.579Z,12.97
2017-04-11T13:05:30.594Z,12.92
2017-04-11T13:06:30.619Z,12.77
2017-04-11T13:07:30.642Z,12.85
2017-04-11T13:08:30.666Z,12.74
2017-04-11T13:10:30.712Z,12.9
2017-04-11T13:11:30.738Z,13.1
2017-04-11T13:12:30.454Z,13.22
2017-04-11T13:13:30.781Z,13.41
2017-04-11T13:14:30.802Z,13.55
2017-04-11T13:15:30.826Z,13.54
2017-04-11T13:16:45.467Z,13.48
2017-04-11T13:17:30.571Z,13.62
2017-04-11T13:18:30.939Z,13.55
2017-04-11T13:19:30.921Z,13.62
2017-04-11T13:20:30.638Z,13.57
2017-04-11T13:21:30.967Z,13.51
2017-04-11T13:22:30.990Z,13.29
2017-04-11T13:23:31.015Z,13.48
2017-04-11T13:24:31.039Z,13.55
2017-04-11T13:25:31.058Z,13.49
2017-04-11T13:26:31.087Z,13.51
2017-04-11T13:27:31.112Z,13.48
2017-04-11T13:28:31.133Z,13.54
2017-04-11T13:29:31.161Z,13.51
2017-04-11T13:30:31.177Z,13.57
2017-04-11T13:31:31.202Z,13.49
2017-04-11T13:32:31.223Z,13.66
2017-04-11T13:33:31.249Z,13.59
2017-04-11T13:34:31.267Z,13.62
2017-04-11T13:35:45.910Z,13.62
2017-04-11T13:36:31.369Z,13.64
2017-04-11T13:37:31.348Z,13.73
2017-04-11T13:38:31.366Z,13.82
2017-04-11T13:39:31.386Z,13.87
2017-04-11T13:40:31.410Z,14.07
2017-04-11T13:41:31.433Z,13.99
2017-04-11T13:42:46.078Z,13.71
2017-04-11T13:43:31.480Z,13.78
2017-04-11T13:44:31.502Z,13.57
2017-04-11T13:45:31.524Z,13.66
2017-04-11T13:46:31.550Z,13.49
2017-04-11T13:47:46.190Z,13.48
2017-04-11T13:48:31.294Z,13.54
2017-04-11T13:49:46.235Z,13.62
2017-04-11T13:50:31.341Z,13.57
2017-04-11T13:51:46.284Z,13.63
2017-04-11T13:52:31.696Z,13.6
2017-04-11T13:53:31.713Z,13.64
2017-04-11T13:54:31.738Z,13.67
2017-04-11T13:55:31.762Z,13.63
2017-04-11T13:56:31.480Z,13.6
2017-04-11T13:57:31.511Z,13.64
2017-04-11T13:58:31.832Z,13.62
2017-04-11T13:59:31.853Z,13.7
2017-04-11T14:00:31.576Z,13.75
2017-04-11T14:02:31.923Z,13.95
2017-04-11T14:03:31.949Z,14.12
2017-04-11T14:04:46.587Z,14.37
2017-04-11T14:05:31.996Z,14.46
2017-04-11T14:06:31.714Z,14.42
2017-04-11T14:07:46.661Z,14.36
2017-04-11T14:08:32.065Z,14.33
2017-04-11T14:09:32.089Z,14.39
2017-04-11T14:10:32.112Z,14.4